createdAt,value
2019-04-21T00:01:59.758Z,21.00
2019-04-21T00:06:26.976Z,20.62
2019-04-21T00:10:35.689Z,29.15
2019-04-21T00:14:26.188Z,22.95
2019-04-21T00:18:40.707Z,22.75
2019-04-21T00:22:52.072Z,22.20
2019-04-21T00:27:01.940Z,23.75
2019-04-21T00:31:08.478Z,24.98
2019-04-21T00:35:03.305Z,27.53
2019-04-21T00:39:32.627Z,24.37
2019-04-21T00:43:23.390Z,21.30
2019-04-21T00:47:35.858Z,29.07
2019-04-21T00:51:46.624Z,20.57
2019-04-21T00:59:55.740Z,19.17
2019-04-21T01:03:58.366Z,22.67
2019-04-21T01:07:57.941Z,30.95
2019-04-21T01:16:14.746Z,24.02
2019-04-21T01:20:12.152Z,23.60
2019-04-21T01:24:06.557Z,23.35
2019-04-21T01:28:27.016Z,22.85
2019-04-21T01:32:39.040Z,25.95
2019-04-21T01:41:02.474Z,22.60
2019-04-21T01:44:50.305Z,23.87
2019-04-21T01:53:02.342Z,21.23
2019-04-21T01:57:10.409Z,22.30
2019-04-21T02:01:15.610Z,33.33
2019-04-21T02:05:34.529Z,26.00
2019-04-21T02:09:33.683Z,25.17
2019-04-21T02:13:46.868Z,24.80
2019-04-21T02:17:49.827Z,29.95
2019-04-21T02:21:44.874Z,26.52
2019-04-21T02:25:57.438Z,28.42
2019-04-21T02:30:14.671Z,26.07
2019-04-21T02:34:37.910Z,33.98
2019-04-21T02:42:32.049Z,27.35
2019-04-21T02:46:38.439Z,32.63
2019-04-21T02:50:47.252Z,25.52
2019-04-21T02:55:01.226Z,25.60
2019-04-21T02:59:02.946Z,31.93
2019-04-21T03:11:28.949Z,23.95
2019-04-21T03:19:48.146Z,22.00
2019-04-21T03:24:05.408Z,20.27
2019-04-21T03:27:50.907Z,27.77
2019-04-21T03:44:14.470Z,21.35
2019-04-21T03:48:11.489Z,22.90
2019-04-21T03:52:20.073Z,25.20
2019-04-21T04:00:44.897Z,23.00
2019-04-21T04:08:50.192Z,20.12
2019-04-21T04:12:54.619Z,22.35
2019-04-21T04:17:14.410Z,21.10
2019-04-21T04:21:06.055Z,23.62
2019-04-21T04:25:07.869Z,20.30
2019-04-21T04:33:20.284Z,24.20
2019-04-21T04:41:35.202Z,22.48
2019-04-21T04:45:40.919Z,18.50
2019-04-21T05:06:37.551Z,17.80
2019-04-21T05:10:35.008Z,18.17
2019-04-21T05:14:29.818Z,20.72
2019-04-21T05:18:50.422Z,21.37
2019-04-21T05:22:35.534Z,22.07
2019-04-21T05:26:34.531Z,28.07
2019-04-21T05:31:06.254Z,27.20
2019-04-21T05:35:09.493Z,26.90
2019-04-21T05:39:24.545Z,29.40
2019-04-21T05:43:33.412Z,23.35
2019-04-21T05:47:48.628Z,30.95
2019-04-21T05:51:57.431Z,21.52
2019-04-21T05:56:12.549Z,24.55
2019-04-21T06:00:10.121Z,18.20
2019-04-21T06:04:34.792Z,19.20
2019-04-21T06:08:29.739Z,18.23
2019-04-21T06:12:29.545Z,20.82
2019-04-21T06:16:40.348Z,18.93
2019-04-21T06:20:40.653Z,16.50
2019-04-21T06:25:06.951Z,16.67
2019-04-21T06:29:03.945Z,15.93
2019-04-21T06:33:01.723Z,18.73
2019-04-21T06:37:34.912Z,17.70
2019-04-21T06:41:22.808Z,18.48
2019-04-21T06:45:32.175Z,17.07
2019-04-21T06:49:27.479Z,18.43
2019-04-21T06:53:37.607Z,17.10
2019-04-21T06:57:41.723Z,15.37
2019-04-21T07:02:08.760Z,10.90
2019-04-21T07:05:57.582Z,10.27
2019-04-21T07:09:57.432Z,10.33
2019-04-21T07:14:05.747Z,14.17
2019-04-21T07:18:09.266Z,14.53
2019-04-21T07:22:12.604Z,14.67
2019-04-21T07:26:19.196Z,8.10
2019-04-21T07:30:25.426Z,11.40
2019-04-21T07:34:33.344Z,9.93
2019-04-21T07:38:28.600Z,10.73
2019-04-21T07:42:32.827Z,15.32
2019-04-21T07:46:28.938Z,12.57
2019-04-21T07:50:57.775Z,12.43
2019-04-21T07:55:14.224Z,12.35
2019-04-21T07:59:04.780Z,12.80
2019-04-21T08:03:15.514Z,11.83
2019-04-21T08:07:21.811Z,10.48
2019-04-21T08:11:21.123Z,14.60
2019-04-21T08:15:29.123Z,9.17
2019-04-21T08:19:31.060Z,11.20
2019-04-21T08:23:40.247Z,12.15
2019-04-21T08:27:50.875Z,10.95
2019-04-21T08:31:56.530Z,13.97
2019-04-21T08:40:04.951Z,16.90
2019-04-21T08:44:01.996Z,7.90
2019-04-21T08:48:12.081Z,14.50
2019-04-21T08:52:26.016Z,10.53
2019-04-21T08:56:25.442Z,7.55
2019-04-21T09:00:36.837Z,7.00
2019-04-21T09:04:33.874Z,7.87
2019-04-21T09:08:46.290Z,5.73
2019-04-21T09:12:48.022Z,5.90
2019-04-21T09:16:52.868Z,5.33
2019-04-21T09:21:11.004Z,7.90
2019-04-21T09:25:05.909Z,8.78
2019-04-21T09:29:05.716Z,4.27
2019-04-21T09:32:58.649Z,6.20
2019-04-21T09:37:16.473Z,6.63
2019-04-21T09:41:15.924Z,5.90
2019-04-21T09:45:13.995Z,3.43
2019-04-21T09:49:22.464Z,4.90
2019-04-21T09:53:31.189Z,4.70
2019-04-21T09:57:40.725Z,5.20
2019-04-21T10:01:49.144Z,7.40
2019-04-21T10:05:39.338Z,3.23
2019-04-21T10:09:43.589Z,3.17
2019-04-21T10:13:48.616Z,3.17
2019-04-21T10:17:54.104Z,19.27
2019-04-21T10:21:59.484Z,7.10
2019-04-21T10:26:04.170Z,4.40
2019-04-21T10:30:12.134Z,3.20
2019-04-21T10:34:16.887Z,5.00
2019-04-21T10:38:32.747Z,5.42
2019-04-21T10:42:26.899Z,2.70
2019-04-21T10:46:30.827Z,3.30
2019-04-21T10:50:34.804Z,3.42
2019-04-21T10:55:02.501Z,4.67
2019-04-21T10:58:44.554Z,5.62
2019-04-21T11:02:59.024Z,3.50
2019-04-21T11:07:10.449Z,11.05
2019-04-21T11:11:10.055Z,5.90
2019-04-21T11:15:14.827Z,4.78
2019-04-21T11:19:19.938Z,5.42
2019-04-21T11:23:24.963Z,5.97
2019-04-21T11:27:28.832Z,5.60
2019-04-21T11:31:33.433Z,5.72
2019-04-21T11:35:37.443Z,4.47
2019-04-21T11:39:50.029Z,5.95
2019-04-21T11:43:46.350Z,4.20
2019-04-21T11:48:08.169Z,5.75
2019-04-21T11:52:13.156Z,6.80
2019-04-21T11:56:16.982Z,4.97
2019-04-21T12:00:21.537Z,4.77
2019-04-21T12:04:25.542Z,4.30
2019-04-21T12:08:36.222Z,8.48
2019-04-21T12:12:35.091Z,7.77
2019-04-21T12:16:39.163Z,11.65
2019-04-21T12:20:43.118Z,8.08
2019-04-21T12:24:47.110Z,6.58
2019-04-21T12:28:52.161Z,6.05
2019-04-21T12:33:00.163Z,3.27
2019-04-21T12:37:04.629Z,4.50
2019-04-21T12:41:08.687Z,9.63
2019-04-21T12:45:13.119Z,4.03
2019-04-21T12:49:17.898Z,9.58
2019-04-21T12:53:21.599Z,5.90
2019-04-21T12:57:25.475Z,6.22
2019-04-21T13:01:29.123Z,5.85
2019-04-21T13:05:33.779Z,4.40
2019-04-21T13:09:37.539Z,4.40
2019-04-21T13:13:42.061Z,5.58
2019-04-21T13:17:47.313Z,2.90
2019-04-21T13:21:52.048Z,5.63
2019-04-21T13:25:56.067Z,5.33
2019-04-21T13:30:00.056Z,4.87
2019-04-21T13:34:06.049Z,4.28
2019-04-21T13:38:19.938Z,4.10
2019-04-21T13:42:24.533Z,4.75
2019-04-21T13:46:22.820Z,5.08
2019-04-21T13:50:26.386Z,3.37
2019-04-21T13:54:29.984Z,3.75
2019-04-21T13:58:34.615Z,3.62
2019-04-21T14:02:38.671Z,3.62
2019-04-21T14:06:42.529Z,2.30
2019-04-21T14:10:47.313Z,2.80
2019-04-21T14:14:52.473Z,2.42
2019-04-21T14:18:57.185Z,3.08
2019-04-21T14:23:13.557Z,3.73
2019-04-21T14:27:06.355Z,6.17
2019-04-21T14:31:10.508Z,3.35
2019-04-21T14:35:14.765Z,2.65
2019-04-21T14:39:18.549Z,3.72
2019-04-21T14:43:22.261Z,5.60
2019-04-21T14:47:44.306Z,4.50
2019-04-21T14:51:49.706Z,5.65
2019-04-21T14:55:53.311Z,4.00
2019-04-21T14:59:57.322Z,3.10
2019-04-21T15:04:01.637Z,4.55
2019-04-21T15:08:05.256Z,4.03
2019-04-21T15:12:10.039Z,2.35
2019-04-21T15:16:14.956Z,3.52
2019-04-21T15:20:20.183Z,4.17
2019-04-21T15:24:24.352Z,3.10
2019-04-21T15:28:30.682Z,3.55
2019-04-21T15:32:34.528Z,4.60
2019-04-21T15:36:38.206Z,3.33
2019-04-21T15:40:50.561Z,2.65
2019-04-21T15:44:48.376Z,3.53
2019-04-21T15:48:52.989Z,4.12
2019-04-21T15:52:58.199Z,2.55
2019-04-21T15:57:09.185Z,3.70
2019-04-21T16:01:14.532Z,5.33
2019-04-21T16:05:19.123Z,3.83
2019-04-21T16:09:25.934Z,5.95
2019-04-21T16:13:27.875Z,5.10
2019-04-21T16:17:32.828Z,6.22
2019-04-21T16:21:40.441Z,10.68
2019-04-21T16:25:41.827Z,5.10
2019-04-21T16:29:45.763Z,4.17
2019-04-21T16:33:49.556Z,2.45
2019-04-21T16:37:55.752Z,3.72
2019-04-21T16:41:58.429Z,2.35
2019-04-21T16:46:02.013Z,3.52
2019-04-21T16:50:07.780Z,3.47
2019-04-21T16:54:13.650Z,3.30
2019-04-21T16:58:28.347Z,3.42
2019-04-21T17:02:30.509Z,3.45
2019-04-21T17:06:35.295Z,9.03
2019-04-21T17:10:40.333Z,6.30
2019-04-21T17:14:57.108Z,9.15
2019-04-21T17:18:59.534Z,15.03
2019-04-21T17:22:55.613Z,6.03
2019-04-21T17:26:59.605Z,3.93
2019-04-21T17:31:04.570Z,3.47
2019-04-21T17:35:10.157Z,3.17
2019-04-21T17:39:13.771Z,12.23
2019-04-21T17:43:18.419Z,3.27
2019-04-21T17:47:33.750Z,13.38
2019-04-21T17:51:56.584Z,14.03
2019-04-21T17:56:19.608Z,5.47
2019-04-21T18:00:24.029Z,4.73
2019-04-21T18:04:24.320Z,6.13
2019-04-21T18:08:32.521Z,4.07
2019-04-21T18:12:33.396Z,5.93
2019-04-21T18:16:32.498Z,4.05
2019-04-21T18:20:30.091Z,9.35
2019-04-21T18:24:45.941Z,10.45
2019-04-21T18:28:40.936Z,5.17
2019-04-21T18:32:44.595Z,5.47
2019-04-21T18:36:52.126Z,5.58
2019-04-21T18:40:56.474Z,8.05
2019-04-21T18:49:11.410Z,4.78
2019-04-21T18:53:32.025Z,5.40
2019-04-21T18:57:30.582Z,6.08
2019-04-21T19:01:30.714Z,8.17
2019-04-21T19:05:32.411Z,9.90
2019-04-21T19:18:32.489Z,6.58
2019-04-21T19:22:15.781Z,8.90
2019-04-21T19:26:34.014Z,8.73
2019-04-21T19:34:21.069Z,7.35
2019-04-21T19:38:30.579Z,8.93
2019-04-21T19:42:35.430Z,8.37
2019-04-21T19:46:44.633Z,7.27
2019-04-21T19:50:50.527Z,6.53
2019-04-21T19:54:44.445Z,10.13
2019-04-21T19:58:47.249Z,9.93
2019-04-21T20:02:50.429Z,10.17
2019-04-21T20:07:02.851Z,5.92
2019-04-21T20:11:14.610Z,7.30
2019-04-21T20:15:31.774Z,9.63
2019-04-21T20:19:15.207Z,7.62
2019-04-21T20:23:22.758Z,7.10
2019-04-21T20:27:36.290Z,7.10
2019-04-21T20:31:48.710Z,7.90
2019-04-21T20:39:47.326Z,7.50
2019-04-21T20:44:02.478Z,9.63
2019-04-21T20:47:53.915Z,5.73
2019-04-21T20:52:18.855Z,5.70
2019-04-21T20:56:11.175Z,7.70
2019-04-21T21:00:32.310Z,4.60
2019-04-21T21:04:27.271Z,7.60
2019-04-21T21:08:35.498Z,10.73
2019-04-21T21:12:52.730Z,5.13
2019-04-21T21:16:50.352Z,6.45
2019-04-21T21:20:53.983Z,6.23
2019-04-21T21:24:56.852Z,10.40
2019-04-21T21:28:56.346Z,7.40
2019-04-21T21:33:11.418Z,6.67
2019-04-21T21:37:21.578Z,6.63
2019-04-21T21:41:13.759Z,8.83
2019-04-21T21:45:13.819Z,8.77
2019-04-21T21:49:28.338Z,10.23
2019-04-21T21:53:23.012Z,4.65
2019-04-21T21:57:24.503Z,5.53
2019-04-21T22:01:35.784Z,7.30
2019-04-21T22:05:45.525Z,9.13
2019-04-21T22:09:39.962Z,7.90
2019-04-21T22:13:53.290Z,6.95
2019-04-21T22:18:07.382Z,7.07
2019-04-21T22:22:13.939Z,7.20
2019-04-21T22:25:59.334Z,7.53
2019-04-21T22:30:05.651Z,6.00
2019-04-21T22:34:11.854Z,7.33
2019-04-21T22:38:28.642Z,9.93
2019-04-21T22:42:25.559Z,10.80
2019-04-21T22:46:24.414Z,7.72
2019-04-21T22:50:31.084Z,12.55
2019-04-21T22:54:40.817Z,10.25
2019-04-21T22:58:44.032Z,13.17
2019-04-21T23:02:45.238Z,10.77
2019-04-21T23:06:59.273Z,10.68
2019-04-21T23:11:00.816Z,10.33
2019-04-21T23:15:06.551Z,10.13
2019-04-21T23:19:20.068Z,10.63
2019-04-21T23:23:28.617Z,14.87
2019-04-21T23:27:34.325Z,11.33
2019-04-21T23:31:39.875Z,8.33
2019-04-21T23:35:31.994Z,10.60
2019-04-21T23:39:33.785Z,13.00
2019-04-21T23:43:38.147Z,12.53
2019-04-21T23:47:53.096Z,15.40
2019-04-21T23:51:54.919Z,11.90
2019-04-21T23:55:53.006Z,15.57
2019-04-21T23:59:58.863Z,9.28
